sensor_id;sensor_type;location;lat;lon;timestamp;temperature;humidity
48860;DHT22;34679;51.436;-2.518;2024-01-30T00:01:45;11.40;99.90
48860;DHT22;34679;51.436;-2.518;2024-01-30T00:04:11;11.40;99.90
48860;DHT22;34679;51.436;-2.518;2024-01-30T00:06:37;11.40;99.90
48860;DHT22;34679;51.436;-2.518;2024-01-30T00:09:02;11.30;99.90
48860;DHT22;34679;51.436;-2.518;2024-01-30T00:11:28;11.40;99.90
48860;DHT22;34679;51.436;-2.518;2024-01-30T00:13:54;11.30;99.90
48860;DHT22;34679;51.436;-2.518;2024-01-30T00:16:25;11.30;99.90
48860;DHT22;34679;51.436;-2.518;2024-01-30T00:18:51;11.40;99.90
48860;DHT22;34679;51.436;-2.518;2024-01-30T00:21:18;11.40;99.90
48860;DHT22;34679;51.436;-2.518;2024-01-30T00:23:43;11.30;99.90
48860;DHT22;34679;51.436;-2.518;2024-01-30T00:26:09;11.30;99.90
48860;DHT22;34679;51.436;-2.518;2024-01-30T00:28:35;11.40;99.90
48860;DHT22;34679;51.436;-2.518;2024-01-30T00:31:01;11.40;99.90
48860;DHT22;34679;51.436;-2.518;2024-01-30T00:33:26;11.40;99.90
48860;DHT22;34679;51.436;-2.518;2024-01-30T00:35:52;11.40;99.90
48860;DHT22;34679;51.436;-2.518;2024-01-30T00:38:18;11.40;99.90
48860;DHT22;34679;51.436;-2.518;2024-01-30T00:40:43;11.40;99.90
48860;DHT22;34679;51.436;-2.518;2024-01-30T00:43:09;11.30;99.90
48860;DHT22;34679;51.436;-2.518;2024-01-30T00:45:35;11.30;99.90
48860;DHT22;34679;51.436;-2.518;2024-01-30T00:48:01;11.30;99.90
48860;DHT22;34679;51.436;-2.518;2024-01-30T00:50:26;11.30;99.90
48860;DHT22;34679;51.436;-2.518;2024-01-30T00:52:52;11.30;99.90
48860;DHT22;34679;51.436;-2.518;2024-01-30T00:55:18;11.40;99.90
48860;DHT22;34679;51.436;-2.518;2024-01-30T00:57:43;11.30;99.90
48860;DHT22;34679;51.436;-2.518;2024-01-30T01:00:10;11.40;99.90
48860;DHT22;34679;51.436;-2.518;2024-01-30T01:02:35;11.30;99.90
48860;DHT22;34679;51.436;-2.518;2024-01-30T01:05:02;11.30;99.90
48860;DHT22;34679;51.436;-2.518;2024-01-30T01:07:28;11.20;99.90
48860;DHT22;34679;51.436;-2.518;2024-01-30T01:09:53;11.00;99.90
48860;DHT22;34679;51.436;-2.518;2024-01-30T01:12:19;10.80;99.90
48860;DHT22;34679;51.436;-2.518;2024-01-30T01:14:45;10.70;99.90
48860;DHT22;34679;51.436;-2.518;2024-01-30T01:17:11;10.60;99.90
48860;DHT22;34679;51.436;-2.518;2024-01-30T01:19:37;10.40;99.90
48860;DHT22;34679;51.436;-2.518;2024-01-30T01:22:03;10.20;99.90
48860;DHT22;34679;51.436;-2.518;2024-01-30T01:24:31;10.00;99.90
48860;DHT22;34679;51.436;-2.518;2024-01-30T01:26:58;10.00;99.90
48860;DHT22;34679;51.436;-2.518;2024-01-30T01:29:24;9.90;99.90
48860;DHT22;34679;51.436;-2.518;2024-01-30T01:31:57;9.70;99.90
48860;DHT22;34679;51.436;-2.518;2024-01-30T01:34:24;9.70;99.90
48860;DHT22;34679;51.436;-2.518;2024-01-30T01:36:50;9.60;99.90
48860;DHT22;34679;51.436;-2.518;2024-01-30T01:39:17;9.60;99.90
48860;DHT22;34679;51.436;-2.518;2024-01-30T01:41:42;9.60;99.90
48860;DHT22;34679;51.436;-2.518;2024-01-30T01:44:09;9.60;99.90
48860;DHT22;34679;51.436;-2.518;2024-01-30T01:46:35;9.60;99.90
48860;DHT22;34679;51.436;-2.518;2024-01-30T01:49:02;9.50;99.90
48860;DHT22;34679;51.436;-2.518;2024-01-30T01:51:31;9.40;99.90
48860;DHT22;34679;51.436;-2.518;2024-01-30T01:54:03;9.40;99.90
48860;DHT22;34679;51.436;-2.518;2024-01-30T01:56:29;9.40;99.90
48860;DHT22;34679;51.436;-2.518;2024-01-30T01:59:00;9.30;99.90
48860;DHT22;34679;51.436;-2.518;2024-01-30T02:01:27;9.30;99.90
48860;DHT22;34679;51.436;-2.518;2024-01-30T02:03:55;9.20;99.90
48860;DHT22;34679;51.436;-2.518;2024-01-30T02:06:21;9.20;99.90
48860;DHT22;34679;51.436;-2.518;2024-01-30T02:08:47;9.20;99.90
48860;DHT22;34679;51.436;-2.518;2024-01-30T02:11:12;9.20;99.90
48860;DHT22;34679;51.436;-2.518;2024-01-30T02:13:40;9.10;99.90
48860;DHT22;34679;51.436;-2.518;2024-01-30T02:16:06;9.20;99.90
48860;DHT22;34679;51.436;-2.518;2024-01-30T02:18:32;9.10;99.90
48860;DHT22;34679;51.436;-2.518;2024-01-30T02:20:58;9.10;99.90
48860;DHT22;34679;51.436;-2.518;2024-01-30T02:23:27;9.10;99.90
48860;DHT22;34679;51.436;-2.518;2024-01-30T02:25:53;9.10;99.90
48860;DHT22;34679;51.436;-2.518;2024-01-30T02:28:19;9.10;99.90
48860;DHT22;34679;51.436;-2.518;2024-01-30T02:30:46;9.00;99.90
48860;DHT22;34679;51.436;-2.518;2024-01-30T02:33:15;9.00;99.90
48860;DHT22;34679;51.436;-2.518;2024-01-30T02:35:40;9.10;99.90
48860;DHT22;34679;51.436;-2.518;2024-01-30T02:38:06;9.10;99.90
48860;DHT22;34679;51.436;-2.518;2024-01-30T02:40:32;9.00;99.90
48860;DHT22;34679;51.436;-2.518;2024-01-30T02:42:59;9.10;99.90
48860;DHT22;34679;51.436;-2.518;2024-01-30T02:45:25;9.00;99.90
48860;DHT22;34679;51.436;-2.518;2024-01-30T02:47:51;9.00;99.90
48860;DHT22;34679;51.436;-2.518;2024-01-30T02:50:16;8.90;99.90
48860;DHT22;34679;51.436;-2.518;2024-01-30T02:52:43;8.90;99.90
48860;DHT22;34679;51.436;-2.518;2024-01-30T02:55:11;8.90;99.90
48860;DHT22;34679;51.436;-2.518;2024-01-30T02:57:38;8.70;99.90
48860;DHT22;34679;51.436;-2.518;2024-01-30T03:00:04;8.70;99.90
48860;DHT22;34679;51.436;-2.518;2024-01-30T03:02:32;8.60;99.90
48860;DHT22;34679;51.436;-2.518;2024-01-30T03:04:59;8.50;99.90
48860;DHT22;34679;51.436;-2.518;2024-01-30T03:07:25;8.50;99.90
48860;DHT22;34679;51.436;-2.518;2024-01-30T03:09:50;8.50;99.90
48860;DHT22;34679;51.436;-2.518;2024-01-30T03:12:16;8.50;99.90
48860;DHT22;34679;51.436;-2.518;2024-01-30T03:14:43;8.50;99.90
48860;DHT22;34679;51.436;-2.518;2024-01-30T03:17:08;8.40;99.90
48860;DHT22;34679;51.436;-2.518;2024-01-30T03:19:34;8.40;99.90
48860;DHT22;34679;51.436;-2.518;2024-01-30T03:22:00;8.40;99.90
48860;DHT22;34679;51.436;-2.518;2024-01-30T03:24:25;8.40;99.90
48860;DHT22;34679;51.436;-2.518;2024-01-30T03:26:51;8.30;99.90
48860;DHT22;34679;51.436;-2.518;2024-01-30T03:29:17;8.30;99.90
48860;DHT22;34679;51.436;-2.518;2024-01-30T03:31:43;8.30;99.90
48860;DHT22;34679;51.436;-2.518;2024-01-30T03:34:08;8.40;99.90
48860;DHT22;34679;51.436;-2.518;2024-01-30T03:36:34;8.40;99.90
48860;DHT22;34679;51.436;-2.518;2024-01-30T03:39:00;8.40;99.90
48860;DHT22;34679;51.436;-2.518;2024-01-30T03:41:26;8.40;99.90
48860;DHT22;34679;51.436;-2.518;2024-01-30T03:43:52;8.40;99.90
48860;DHT22;34679;51.436;-2.518;2024-01-30T03:46:18;8.50;99.90
48860;DHT22;34679;51.436;-2.518;2024-01-30T03:48:45;8.50;99.90
48860;DHT22;34679;51.436;-2.518;2024-01-30T03:51:11;8.50;99.90
48860;DHT22;34679;51.436;-2.518;2024-01-30T03:53:41;8.50;99.90
48860;DHT22;34679;51.436;-2.518;2024-01-30T03:56:08;8.50;99.90
48860;DHT22;34679;51.436;-2.518;2024-01-30T03:58:34;8.50;99.90
48860;DHT22;34679;51.436;-2.518;2024-01-30T04:00:59;8.50;99.90
48860;DHT22;34679;51.436;-2.518;2024-01-30T04:03:25;8.50;99.90
48860;DHT22;34679;51.436;-2.518;2024-01-30T04:05:54;8.50;99.90
48860;DHT22;34679;51.436;-2.518;2024-01-30T04:08:20;8.50;99.90
48860;DHT22;34679;51.436;-2.518;2024-01-30T04:10:46;8.50;99.90
48860;DHT22;34679;51.436;-2.518;2024-01-30T04:13:12;8.40;99.90
48860;DHT22;34679;51.436;-2.518;2024-01-30T04:15:38;8.40;99.90
48860;DHT22;34679;51.436;-2.518;2024-01-30T04:18:04;8.40;99.90
48860;DHT22;34679;51.436;-2.518;2024-01-30T04:20:30;8.40;99.90
48860;DHT22;34679;51.436;-2.518;2024-01-30T04:22:56;8.50;99.90
48860;DHT22;34679;51.436;-2.518;2024-01-30T04:25:21;8.40;99.90
48860;DHT22;34679;51.436;-2.518;2024-01-30T04:27:47;8.40;99.90
48860;DHT22;34679;51.436;-2.518;2024-01-30T04:30:13;8.40;99.90
48860;DHT22;34679;51.436;-2.518;2024-01-30T04:32:39;8.40;99.90
48860;DHT22;34679;51.436;-2.518;2024-01-30T04:35:05;8.40;99.90
48860;DHT22;34679;51.436;-2.518;2024-01-30T04:37:31;8.40;99.90
48860;DHT22;34679;51.436;-2.518;2024-01-30T04:39:57;8.40;99.90
48860;DHT22;34679;51.436;-2.518;2024-01-30T04:42:23;8.40;99.90
48860;DHT22;34679;51.436;-2.518;2024-01-30T04:44:49;8.40;99.90
48860;DHT22;34679;51.436;-2.518;2024-01-30T04:47:15;8.40;99.90
48860;DHT22;34679;51.436;-2.518;2024-01-30T04:49:40;8.40;99.90
48860;DHT22;34679;51.436;-2.518;2024-01-30T04:52:07;8.40;99.90
48860;DHT22;34679;51.436;-2.518;2024-01-30T04:54:33;8.40;99.90
48860;DHT22;34679;51.436;-2.518;2024-01-30T04:56:59;8.40;99.90
48860;DHT22;34679;51.436;-2.518;2024-01-30T04:59:24;8.40;99.90
48860;DHT22;34679;51.436;-2.518;2024-01-30T05:01:50;8.30;99.90
48860;DHT22;34679;51.436;-2.518;2024-01-30T05:04:16;8.40;99.90
48860;DHT22;34679;51.436;-2.518;2024-01-30T05:06:42;8.40;99.90
48860;DHT22;34679;51.436;-2.518;2024-01-30T05:09:08;8.30;99.90
48860;DHT22;34679;51.436;-2.518;2024-01-30T05:11:41;8.30;99.90
48860;DHT22;34679;51.436;-2.518;2024-01-30T05:14:07;8.30;99.90
48860;DHT22;34679;51.436;-2.518;2024-01-30T05:16:34;8.30;99.90
48860;DHT22;34679;51.436;-2.518;2024-01-30T05:19:00;8.30;99.90
48860;DHT22;34679;51.436;-2.518;2024-01-30T05:21:26;8.30;99.90
48860;DHT22;34679;51.436;-2.518;2024-01-30T05:23:51;8.30;99.90
48860;DHT22;34679;51.436;-2.518;2024-01-30T05:26:17;8.30;99.90
48860;DHT22;34679;51.436;-2.518;2024-01-30T05:28:43;8.20;99.90
48860;DHT22;34679;51.436;-2.518;2024-01-30T05:31:12;8.20;99.90
48860;DHT22;34679;51.436;-2.518;2024-01-30T05:33:37;8.20;99.90
48860;DHT22;34679;51.436;-2.518;2024-01-30T05:36:03;8.30;99.90
48860;DHT22;34679;51.436;-2.518;2024-01-30T05:38:29;8.20;99.90
48860;DHT22;34679;51.436;-2.518;2024-01-30T05:40:55;8.30;99.90
48860;DHT22;34679;51.436;-2.518;2024-01-30T05:43:23;8.20;99.90
48860;DHT22;34679;51.436;-2.518;2024-01-30T05:45:49;8.20;99.90
48860;DHT22;34679;51.436;-2.518;2024-01-30T05:48:15;8.20;99.90
48860;DHT22;34679;51.436;-2.518;2024-01-30T05:50:40;8.20;99.90
48860;DHT22;34679;51.436;-2.518;2024-01-30T05:53:06;8.20;99.90
48860;DHT22;34679;51.436;-2.518;2024-01-30T05:55:32;8.20;99.90
48860;DHT22;34679;51.436;-2.518;2024-01-30T05:57:57;8.20;99.90
48860;DHT22;34679;51.436;-2.518;2024-01-30T06:00:23;8.20;99.90
48860;DHT22;34679;51.436;-2.518;2024-01-30T06:02:49;8.10;99.90
48860;DHT22;34679;51.436;-2.518;2024-01-30T06:05:15;8.20;99.90
48860;DHT22;34679;51.436;-2.518;2024-01-30T06:07:40;8.10;99.90
48860;DHT22;34679;51.436;-2.518;2024-01-30T06:10:06;8.10;99.90
48860;DHT22;34679;51.436;-2.518;2024-01-30T06:12:37;8.10;99.90
48860;DHT22;34679;51.436;-2.518;2024-01-30T06:15:03;8.10;99.90
48860;DHT22;34679;51.436;-2.518;2024-01-30T06:17:29;8.00;99.90
48860;DHT22;34679;51.436;-2.518;2024-01-30T06:19:54;8.00;99.90
48860;DHT22;34679;51.436;-2.518;2024-01-30T06:22:20;8.00;99.90
48860;DHT22;34679;51.436;-2.518;2024-01-30T06:24:46;8.00;99.90
48860;DHT22;34679;51.436;-2.518;2024-01-30T06:27:14;8.00;99.90
48860;DHT22;34679;51.436;-2.518;2024-01-30T06:29:41;8.00;99.90
48860;DHT22;34679;51.436;-2.518;2024-01-30T06:32:08;7.90;99.90
48860;DHT22;34679;51.436;-2.518;2024-01-30T06:34:33;8.00;99.90
48860;DHT22;34679;51.436;-2.518;2024-01-30T06:36:59;8.00;99.90
48860;DHT22;34679;51.436;-2.518;2024-01-30T06:39:26;8.00;99.90
48860;DHT22;34679;51.436;-2.518;2024-01-30T06:41:52;8.00;99.90
48860;DHT22;34679;51.436;-2.518;2024-01-30T06:44:17;8.00;99.90
48860;DHT22;34679;51.436;-2.518;2024-01-30T06:46:43;8.00;99.90
48860;DHT22;34679;51.436;-2.518;2024-01-30T06:49:09;8.00;99.90
48860;DHT22;34679;51.436;-2.518;2024-01-30T06:51:34;8.00;99.90
48860;DHT22;34679;51.436;-2.518;2024-01-30T06:54:00;8.00;99.90
48860;DHT22;34679;51.436;-2.518;2024-01-30T06:56:26;7.90;99.90
48860;DHT22;34679;51.436;-2.518;2024-01-30T06:58:51;8.00;99.90
48860;DHT22;34679;51.436;-2.518;2024-01-30T07:01:17;7.90;99.90
48860;DHT22;34679;51.436;-2.518;2024-01-30T07:03:43;7.90;99.90
48860;DHT22;34679;51.436;-2.518;2024-01-30T07:06:09;7.90;99.90
48860;DHT22;34679;51.436;-2.518;2024-01-30T07:08:36;7.90;99.90
48860;DHT22;34679;51.436;-2.518;2024-01-30T07:11:04;7.90;99.90
48860;DHT22;34679;51.436;-2.518;2024-01-30T07:13:30;7.90;99.90
48860;DHT22;34679;51.436;-2.518;2024-01-30T07:15:56;7.80;99.90
48860;DHT22;34679;51.436;-2.518;2024-01-30T07:18:21;7.80;99.90
48860;DHT22;34679;51.436;-2.518;2024-01-30T07:20:48;7.80;99.90
48860;DHT22;34679;51.436;-2.518;2024-01-30T07:23:15;7.80;99.90
48860;DHT22;34679;51.436;-2.518;2024-01-30T07:25:46;7.70;99.90
48860;DHT22;34679;51.436;-2.518;2024-01-30T07:28:14;7.80;99.90
48860;DHT22;34679;51.436;-2.518;2024-01-30T07:30:42;7.80;99.90
48860;DHT22;34679;51.436;-2.518;2024-01-30T07:33:08;7.80;99.90
48860;DHT22;34679;51.436;-2.518;2024-01-30T07:35:35;7.80;99.90
48860;DHT22;34679;51.436;-2.518;2024-01-30T07:38:00;7.80;99.90
48860;DHT22;34679;51.436;-2.518;2024-01-30T07:40:26;7.70;99.90
48860;DHT22;34679;51.436;-2.518;2024-01-30T07:42:53;7.70;99.90
48860;DHT22;34679;51.436;-2.518;2024-01-30T07:45:20;7.70;99.90
48860;DHT22;34679;51.436;-2.518;2024-01-30T07:47:50;7.70;99.90
48860;DHT22;34679;51.436;-2.518;2024-01-30T07:50:16;7.70;99.90
48860;DHT22;34679;51.436;-2.518;2024-01-30T07:52:42;7.70;99.90
48860;DHT22;34679;51.436;-2.518;2024-01-30T07:55:08;7.70;99.90
48860;DHT22;34679;51.436;-2.518;2024-01-30T07:57:34;7.70;99.90
48860;DHT22;34679;51.436;-2.518;2024-01-30T08:00:03;7.70;99.90
48860;DHT22;34679;51.436;-2.518;2024-01-30T08:02:31;7.70;99.90
48860;DHT22;34679;51.436;-2.518;2024-01-30T08:04:56;7.70;99.90
48860;DHT22;34679;51.436;-2.518;2024-01-30T08:07:22;7.60;99.90
48860;DHT22;34679;51.436;-2.518;2024-01-30T08:09:48;7.60;99.90
48860;DHT22;34679;51.436;-2.518;2024-01-30T08:12:13;7.60;99.90
48860;DHT22;34679;51.436;-2.518;2024-01-30T08:14:39;7.70;99.90
48860;DHT22;34679;51.436;-2.518;2024-01-30T08:17:06;7.70;99.90
48860;DHT22;34679;51.436;-2.518;2024-01-30T08:19:33;7.70;99.90
48860;DHT22;34679;51.436;-2.518;2024-01-30T08:21:58;7.70;99.90
48860;DHT22;34679;51.436;-2.518;2024-01-30T08:24:24;7.70;99.90
48860;DHT22;34679;51.436;-2.518;2024-01-30T08:26:50;7.70;99.90
48860;DHT22;34679;51.436;-2.518;2024-01-30T08:29:16;7.70;99.90
48860;DHT22;34679;51.436;-2.518;2024-01-30T08:31:41;7.80;99.90
48860;DHT22;34679;51.436;-2.518;2024-01-30T08:34:07;7.80;99.90
48860;DHT22;34679;51.436;-2.518;2024-01-30T08:36:33;7.70;99.90
48860;DHT22;34679;51.436;-2.518;2024-01-30T08:38:58;7.80;99.90
48860;DHT22;34679;51.436;-2.518;2024-01-30T08:41:24;7.80;99.90
48860;DHT22;34679;51.436;-2.518;2024-01-30T08:43:50;7.70;99.90
48860;DHT22;34679;51.436;-2.518;2024-01-30T08:46:18;7.60;99.90
48860;DHT22;34679;51.436;-2.518;2024-01-30T08:48:44;8.00;99.90
48860;DHT22;34679;51.436;-2.518;2024-01-30T08:51:10;8.30;99.90
48860;DHT22;34679;51.436;-2.518;2024-01-30T08:53:36;8.80;99.90
48860;DHT22;34679;51.436;-2.518;2024-01-30T08:56:03;9.30;99.90
48860;DHT22;34679;51.436;-2.518;2024-01-30T08:58:29;9.60;99.90
48860;DHT22;34679;51.436;-2.518;2024-01-30T09:00:55;9.60;99.90
48860;DHT22;34679;51.436;-2.518;2024-01-30T09:03:20;9.50;99.90
48860;DHT22;34679;51.436;-2.518;2024-01-30T09:05:46;9.20;99.90
48860;DHT22;34679;51.436;-2.518;2024-01-30T09:08:12;8.80;99.90
48860;DHT22;34679;51.436;-2.518;2024-01-30T09:10:38;8.50;99.90
48860;DHT22;34679;51.436;-2.518;2024-01-30T09:13:03;8.30;99.90
48860;DHT22;34679;51.436;-2.518;2024-01-30T09:15:29;8.10;99.90
48860;DHT22;34679;51.436;-2.518;2024-01-30T09:17:55;8.00;99.90
48860;DHT22;34679;51.436;-2.518;2024-01-30T09:20:20;8.10;99.90
48860;DHT22;34679;51.436;-2.518;2024-01-30T09:22:47;8.40;99.90
48860;DHT22;34679;51.436;-2.518;2024-01-30T09:25:14;8.60;99.90
48860;DHT22;34679;51.436;-2.518;2024-01-30T09:27:40;8.40;99.90
48860;DHT22;34679;51.436;-2.518;2024-01-30T09:30:06;8.30;99.90
48860;DHT22;34679;51.436;-2.518;2024-01-30T09:32:32;8.10;99.90
48860;DHT22;34679;51.436;-2.518;2024-01-30T09:34:58;8.10;99.90
48860;DHT22;34679;51.436;-2.518;2024-01-30T09:37:24;8.20;99.90
48860;DHT22;34679;51.436;-2.518;2024-01-30T09:39:49;8.20;99.90
48860;DHT22;34679;51.436;-2.518;2024-01-30T09:42:43;8.10;99.90
48860;DHT22;34679;51.436;-2.518;2024-01-30T09:45:13;8.20;99.90
48860;DHT22;34679;51.436;-2.518;2024-01-30T09:47:44;8.20;99.90
48860;DHT22;34679;51.436;-2.518;2024-01-30T09:50:11;8.20;99.90
48860;DHT22;34679;51.436;-2.518;2024-01-30T09:52:37;8.30;99.90
48860;DHT22;34679;51.436;-2.518;2024-01-30T09:55:04;8.30;99.90
48860;DHT22;34679;51.436;-2.518;2024-01-30T09:57:30;8.40;99.90
48860;DHT22;34679;51.436;-2.518;2024-01-30T09:59:56;8.30;99.90
48860;DHT22;34679;51.436;-2.518;2024-01-30T10:02:22;8.30;99.90
48860;DHT22;34679;51.436;-2.518;2024-01-30T10:04:50;8.30;99.90
48860;DHT22;34679;51.436;-2.518;2024-01-30T10:07:19;8.40;99.90
48860;DHT22;34679;51.436;-2.518;2024-01-30T10:09:45;8.30;99.90
48860;DHT22;34679;51.436;-2.518;2024-01-30T10:12:11;8.40;99.90
48860;DHT22;34679;51.436;-2.518;2024-01-30T10:14:41;8.30;99.90
48860;DHT22;34679;51.436;-2.518;2024-01-30T10:17:11;8.40;99.90
48860;DHT22;34679;51.436;-2.518;2024-01-30T10:19:38;8.40;99.90
48860;DHT22;34679;51.436;-2.518;2024-01-30T10:22:04;8.40;99.90
48860;DHT22;34679;51.436;-2.518;2024-01-30T10:24:30;8.30;99.90
48860;DHT22;34679;51.436;-2.518;2024-01-30T10:26:56;8.40;99.90
48860;DHT22;34679;51.436;-2.518;2024-01-30T10:29:22;8.40;99.90
48860;DHT22;34679;51.436;-2.518;2024-01-30T10:32:01;8.40;99.90
48860;DHT22;34679;51.436;-2.518;2024-01-30T10:34:27;8.50;99.90
48860;DHT22;34679;51.436;-2.518;2024-01-30T10:37:07;8.40;99.90
48860;DHT22;34679;51.436;-2.518;2024-01-30T10:39:38;8.40;99.90
48860;DHT22;34679;51.436;-2.518;2024-01-30T10:42:05;8.40;99.90
48860;DHT22;34679;51.436;-2.518;2024-01-30T10:47:12;8.40;99.90
48860;DHT22;34679;51.436;-2.518;2024-01-30T10:49:40;8.40;99.90
48860;DHT22;34679;51.436;-2.518;2024-01-30T10:52:08;8.40;99.90
48860;DHT22;34679;51.436;-2.518;2024-01-30T10:54:35;8.40;99.90
48860;DHT22;34679;51.436;-2.518;2024-01-30T10:57:02;8.40;99.90
48860;DHT22;34679;51.436;-2.518;2024-01-30T10:59:30;8.50;99.90
48860;DHT22;34679;51.436;-2.518;2024-01-30T11:01:58;8.40;99.90
48860;DHT22;34679;51.436;-2.518;2024-01-30T11:04:24;8.40;99.90
48860;DHT22;34679;51.436;-2.518;2024-01-30T11:06:51;8.50;99.90
48860;DHT22;34679;51.436;-2.518;2024-01-30T11:09:20;8.60;99.90
48860;DHT22;34679;51.436;-2.518;2024-01-30T11:11:56;8.60;99.90
48860;DHT22;34679;51.436;-2.518;2024-01-30T11:14:31;8.50;99.90
48860;DHT22;34679;51.436;-2.518;2024-01-30T11:16:58;8.50;99.90
48860;DHT22;34679;51.436;-2.518;2024-01-30T11:19:25;8.40;99.90
48860;DHT22;34679;51.436;-2.518;2024-01-30T11:21:53;8.60;99.90
48860;DHT22;34679;51.436;-2.518;2024-01-30T11:24:20;8.60;99.90
48860;DHT22;34679;51.436;-2.518;2024-01-30T11:26:50;8.60;99.90
48860;DHT22;34679;51.436;-2.518;2024-01-30T11:29:27;8.60;99.90
48860;DHT22;34679;51.436;-2.518;2024-01-30T11:31:54;8.60;99.90
48860;DHT22;34679;51.436;-2.518;2024-01-30T11:34:20;8.70;99.90
48860;DHT22;34679;51.436;-2.518;2024-01-30T11:37:12;8.70;99.90
48860;DHT22;34679;51.436;-2.518;2024-01-30T11:39:37;8.80;99.90
48860;DHT22;34679;51.436;-2.518;2024-01-30T11:42:06;8.60;99.90
48860;DHT22;34679;51.436;-2.518;2024-01-30T11:44:33;8.60;99.90
48860;DHT22;34679;51.436;-2.518;2024-01-30T11:46:59;8.60;99.90
48860;DHT22;34679;51.436;-2.518;2024-01-30T11:49:24;8.60;99.90
48860;DHT22;34679;51.436;-2.518;2024-01-30T11:51:50;8.70;99.90
48860;DHT22;34679;51.436;-2.518;2024-01-30T11:54:16;8.80;99.90
48860;DHT22;34679;51.436;-2.518;2024-01-30T11:56:42;8.90;99.90
48860;DHT22;34679;51.436;-2.518;2024-01-30T11:59:08;9.00;99.90
48860;DHT22;34679;51.436;-2.518;2024-01-30T12:01:34;9.00;99.90
48860;DHT22;34679;51.436;-2.518;2024-01-30T12:04:00;9.10;99.90
48860;DHT22;34679;51.436;-2.518;2024-01-30T12:06:27;9.20;99.90
48860;DHT22;34679;51.436;-2.518;2024-01-30T12:09:00;9.30;99.90
48860;DHT22;34679;51.436;-2.518;2024-01-30T12:11:27;9.30;99.90
48860;DHT22;34679;51.436;-2.518;2024-01-30T12:13:53;9.40;99.90
48860;DHT22;34679;51.436;-2.518;2024-01-30T12:16:20;9.40;99.90
48860;DHT22;34679;51.436;-2.518;2024-01-30T12:18:46;9.40;99.90
48860;DHT22;34679;51.436;-2.518;2024-01-30T12:21:11;9.50;99.90
48860;DHT22;34679;51.436;-2.518;2024-01-30T12:23:37;9.50;99.90
48860;DHT22;34679;51.436;-2.518;2024-01-30T12:26:04;9.60;99.90
48860;DHT22;34679;51.436;-2.518;2024-01-30T12:28:33;9.60;99.90
48860;DHT22;34679;51.436;-2.518;2024-01-30T12:31:05;9.50;99.90
48860;DHT22;34679;51.436;-2.518;2024-01-30T12:33:31;9.40;99.90
48860;DHT22;34679;51.436;-2.518;2024-01-30T12:35:57;9.50;99.90
48860;DHT22;34679;51.436;-2.518;2024-01-30T12:38:27;9.50;99.90
48860;DHT22;34679;51.436;-2.518;2024-01-30T12:40:56;9.50;99.90
48860;DHT22;34679;51.436;-2.518;2024-01-30T12:43:23;9.60;99.90
48860;DHT22;34679;51.436;-2.518;2024-01-30T12:45:50;9.60;99.90
48860;DHT22;34679;51.436;-2.518;2024-01-30T12:48:15;9.70;99.90
48860;DHT22;34679;51.436;-2.518;2024-01-30T12:50:41;9.70;99.90
48860;DHT22;34679;51.436;-2.518;2024-01-30T12:53:07;9.70;99.90
48860;DHT22;34679;51.436;-2.518;2024-01-30T12:55:34;9.70;99.90
48860;DHT22;34679;51.436;-2.518;2024-01-30T12:58:00;9.80;99.90
48860;DHT22;34679;51.436;-2.518;2024-01-30T13:00:26;9.70;99.90
48860;DHT22;34679;51.436;-2.518;2024-01-30T13:02:52;9.60;99.90
48860;DHT22;34679;51.436;-2.518;2024-01-30T13:05:18;9.60;99.90
48860;DHT22;34679;51.436;-2.518;2024-01-30T13:07:44;9.60;99.90
48860;DHT22;34679;51.436;-2.518;2024-01-30T13:10:10;9.80;99.90
48860;DHT22;34679;51.436;-2.518;2024-01-30T13:12:35;9.90;99.90
48860;DHT22;34679;51.436;-2.518;2024-01-30T13:15:02;9.90;99.90
48860;DHT22;34679;51.436;-2.518;2024-01-30T13:17:30;10.00;99.90
48860;DHT22;34679;51.436;-2.518;2024-01-30T13:19:56;10.10;99.90
48860;DHT22;34679;51.436;-2.518;2024-01-30T13:22:21;10.10;99.90
48860;DHT22;34679;51.436;-2.518;2024-01-30T13:24:47;10.00;99.90
48860;DHT22;34679;51.436;-2.518;2024-01-30T13:27:13;9.90;99.90
48860;DHT22;34679;51.436;-2.518;2024-01-30T13:29:39;10.00;99.90
48860;DHT22;34679;51.436;-2.518;2024-01-30T13:32:05;10.00;99.90
48860;DHT22;34679;51.436;-2.518;2024-01-30T13:34:31;10.10;99.90
48860;DHT22;34679;51.436;-2.518;2024-01-30T13:36:57;10.20;99.90
48860;DHT22;34679;51.436;-2.518;2024-01-30T13:39:23;10.10;99.90
48860;DHT22;34679;51.436;-2.518;2024-01-30T13:41:49;10.00;99.90
48860;DHT22;34679;51.436;-2.518;2024-01-30T13:44:15;9.90;99.90
48860;DHT22;34679;51.436;-2.518;2024-01-30T13:46:42;10.00;99.90
48860;DHT22;34679;51.436;-2.518;2024-01-30T13:49:08;9.90;99.90
48860;DHT22;34679;51.436;-2.518;2024-01-30T13:51:34;10.00;99.90
48860;DHT22;34679;51.436;-2.518;2024-01-30T13:54:00;9.90;99.90
48860;DHT22;34679;51.436;-2.518;2024-01-30T13:56:26;9.90;99.90
48860;DHT22;34679;51.436;-2.518;2024-01-30T13:58:52;9.90;99.90
48860;DHT22;34679;51.436;-2.518;2024-01-30T14:01:18;9.90;99.90
48860;DHT22;34679;51.436;-2.518;2024-01-30T14:03:45;9.80;99.90
48860;DHT22;34679;51.436;-2.518;2024-01-30T14:06:11;9.80;99.90
48860;DHT22;34679;51.436;-2.518;2024-01-30T14:08:37;9.80;99.90
48860;DHT22;34679;51.436;-2.518;2024-01-30T14:11:03;9.80;99.90
48860;DHT22;34679;51.436;-2.518;2024-01-30T14:13:29;10.00;99.90
48860;DHT22;34679;51.436;-2.518;2024-01-30T14:15:56;10.00;99.90
48860;DHT22;34679;51.436;-2.518;2024-01-30T14:18:22;10.00;99.90
48860;DHT22;34679;51.436;-2.518;2024-01-30T14:20:48;9.90;99.90
48860;DHT22;34679;51.436;-2.518;2024-01-30T14:23:14;9.90;99.90
48860;DHT22;34679;51.436;-2.518;2024-01-30T14:25:40;9.90;99.90
48860;DHT22;34679;51.436;-2.518;2024-01-30T14:28:06;9.90;99.90
48860;DHT22;34679;51.436;-2.518;2024-01-30T14:30:31;9.80;99.90
48860;DHT22;34679;51.436;-2.518;2024-01-30T14:32:57;9.70;99.90
48860;DHT22;34679;51.436;-2.518;2024-01-30T14:35:23;9.70;99.90
48860;DHT22;34679;51.436;-2.518;2024-01-30T14:37:49;9.80;99.90
48860;DHT22;34679;51.436;-2.518;2024-01-30T14:40:14;9.80;99.90
48860;DHT22;34679;51.436;-2.518;2024-01-30T14:42:40;9.70;99.90
48860;DHT22;34679;51.436;-2.518;2024-01-30T14:45:06;9.70;99.90
48860;DHT22;34679;51.436;-2.518;2024-01-30T14:47:33;9.70;99.90
48860;DHT22;34679;51.436;-2.518;2024-01-30T14:50:01;9.60;99.90
48860;DHT22;34679;51.436;-2.518;2024-01-30T14:52:26;9.50;99.90
48860;DHT22;34679;51.436;-2.518;2024-01-30T14:54:52;9.40;99.90
48860;DHT22;34679;51.436;-2.518;2024-01-30T14:57:18;9.40;99.90
48860;DHT22;34679;51.436;-2.518;2024-01-30T14:59:44;9.30;99.90
48860;DHT22;34679;51.436;-2.518;2024-01-30T15:02:10;9.30;99.90
48860;DHT22;34679;51.436;-2.518;2024-01-30T15:04:36;9.40;99.90
48860;DHT22;34679;51.436;-2.518;2024-01-30T15:07:02;9.30;99.90
48860;DHT22;34679;51.436;-2.518;2024-01-30T15:09:28;9.40;99.90
48860;DHT22;34679;51.436;-2.518;2024-01-30T15:11:54;9.40;99.90
48860;DHT22;34679;51.436;-2.518;2024-01-30T15:14:19;9.40;99.90
48860;DHT22;34679;51.436;-2.518;2024-01-30T15:16:45;9.50;99.90
48860;DHT22;34679;51.436;-2.518;2024-01-30T15:19:11;9.50;99.90
48860;DHT22;34679;51.436;-2.518;2024-01-30T15:21:37;9.60;99.90
48860;DHT22;34679;51.436;-2.518;2024-01-30T15:24:03;9.60;99.90
48860;DHT22;34679;51.436;-2.518;2024-01-30T15:26:29;9.50;99.90
48860;DHT22;34679;51.436;-2.518;2024-01-30T15:28:55;9.60;99.90